Stations météo

Publicité
Edinburgh, Grande-Bretagne (3160): Température de l'air & dewpoint: 02.12.2019 23:00:00 - 08.12.2019 23:00:00 (GMT)Edinburgh, Grande-Bretagne (3160): Vitesse du vent: 02.12.2019 23:00:00 - 08.12.2019 23:00:00 (GMT)Edinburgh, Grande-Bretagne (3160): Direction du vent: 02.12.2019 23:00:00 - 08.12.2019 23:00:00 (GMT)Edinburgh, Grande-Bretagne (3160): visibility: 02.12.2019 23:00:00 - 08.12.2019 23:00:00 (GMT)
Date & Time tt [°C] td [°C] ff [km/h] ff [knt] dd vv [km]
08.12.2019 23:00:00 5,0 4,0 13 7 WSW 10
08.12.2019 22:00:00 5,0 4,0 21 11 WSW 10
08.12.2019 21:00:00 5,0 4,0 24 13 SW 10
08.12.2019 20:00:00 6,0 5,0 26 14 WSW 10
08.12.2019 19:00:00 5,0 3,0 28 15 SW 10
08.12.2019 18:00:00 5,0 4,0 29 16 SW 10
08.12.2019 17:00:00 6,0 4,0 31 17 SW 10
08.12.2019 16:00:00 6,0 4,0 42 23 SW 10
08.12.2019 15:00:00 6,0 4,0 37 20 SW 10
08.12.2019 14:00:00 6,0 4,0 37 20 SW 10
08.12.2019 13:00:00 6,0 4,0 35 19 SW 10
08.12.2019 12:00:00 5,0 4,0 55 30 WSW 3,3
08.12.2019 11:00:00 6,0 4,0 37 20 WSW 10
08.12.2019 10:00:00 6,0 4,0 31 17 WSW 10
08.12.2019 09:00:00 5,0 4,0 24 13 SW 10
08.12.2019 08:00:00 6,0 5,0 35 19 WSW 10
08.12.2019 07:00:00 6,0 4,0 22 12 WSW 10
08.12.2019 06:00:00 6,0 4,0 24 13 WSW 10
08.12.2019 05:00:00 6,0 4,0 21 11 WSW 10
08.12.2019 04:00:00 7,0 5,0 28 15 WSW 10
08.12.2019 03:00:00 8,0 7,0 29 16 WSW 10
08.12.2019 02:00:00 9,0 7,0 35 19 WSW 7
08.12.2019 01:00:00 11,0 9,0 48 26 WSW 10
08.12.2019 00:00:00 11,0 10,0 44 24 SW 7
07.12.2019 23:00:00 11,0 9,0 50 27 SSW 8
07.12.2019 22:00:00 11,0 9,0 42 23 SSW 8
07.12.2019 21:00:00 11,0 9,0 39 21 SSW 10
07.12.2019 20:00:00 11,0 10,0 39 21 SSW 10
07.12.2019 19:00:00 11,0 9,0 31 17 SW 10
07.12.2019 18:00:00 11,0 9,0 34 18 SW 10
07.12.2019 17:00:00 10,0 9,0 24 13 SW 10
07.12.2019 16:00:00 10,0 9,0 24 13 SW 9
07.12.2019 15:00:00 9,0 9,0 29 16 SW 10
07.12.2019 14:00:00 9,0 8,0 28 15 SW 10
07.12.2019 13:00:00 10,0 8,0 24 13 SSW 10
07.12.2019 12:00:00 9,0 8,0 29 16 SW 10
07.12.2019 11:00:00 9,0 8,0 26 14 WSW 10
07.12.2019 10:00:00 9,0 8,0 18 10 WSW 10
07.12.2019 09:00:00 8,0 7,0 18 10 WSW 10
07.12.2019 08:00:00 8,0 7,0 16 9 WSW 10
07.12.2019 07:00:00 8,0 7,0 15 8 WSW 10
07.12.2019 06:00:00 8,0 6,0 24 13 WSW 10
07.12.2019 05:00:00 7,0 7,0 15 8 W 10
07.12.2019 04:00:00 8,0 7,0 16 9 WSW 10
07.12.2019 03:00:00 8,0 7,0 18 10 WSW 10
07.12.2019 02:00:00 8,0 7,0 22 12 WSW 10
07.12.2019 01:00:00 6,0 6,0 15 8 WSW 10
07.12.2019 00:00:00 8,0 7,0 16 9 WSW 10
06.12.2019 23:00:00 8,0 7,0 18 10 WSW 10
06.12.2019 22:00:00 7,0 6,0 16 9 WSW 10
06.12.2019 21:00:00 8,0 7,0 21 11 W 10
06.12.2019 20:00:00 8,0 6,0 18 10 W 10
06.12.2019 19:00:00 8,0 6,0 18 10 WSW 10
06.12.2019 18:00:00 8,0 6,0 21 11 WSW 10
06.12.2019 17:00:00 9,0 7,0 21 11 WSW 10
06.12.2019 16:00:00 9,0 7,0 21 11 WSW 10
06.12.2019 15:00:00 9,0 7,0 18 10 WSW 10
06.12.2019 14:00:00 9,0 8,0 16 9 WSW 10
06.12.2019 13:00:00 10,0 8,0 21 11 WSW 10
06.12.2019 12:00:00 10,0 9,0 21 11 WSW 10
06.12.2019 11:00:00 10,0 8,0 18 10 W 10
06.12.2019 10:00:00 10,0 9,0 16 9 WSW 10
06.12.2019 09:00:00 11,0 11,0 18 10 WSW 10
06.12.2019 08:00:00 11,0 11,0 21 11 WSW 10
06.12.2019 07:00:00 12,0 11,0 26 14 WSW 10
06.12.2019 06:00:00 12,0 11,0 26 14 WSW 10
06.12.2019 05:00:00 12,0 11,0 28 15 WSW 10
06.12.2019 04:00:00 12,0 11,0 29 16 SW 10
06.12.2019 03:00:00 12,0 10,0 28 15 WSW 10
06.12.2019 02:00:00 11,0 10,0 31 17 WSW 10
06.12.2019 01:00:00 11,0 10,0 35 19 WSW 10
06.12.2019 00:00:00 12,0 11,0 22 12 WSW 10
05.12.2019 23:00:00 12,0 10,0 35 19 WSW 10
05.12.2019 22:00:00 12,0 11,0 35 19 WSW 10
05.12.2019 21:00:00 12,0 11,0 42 23 WSW 10
05.12.2019 20:00:00 13,0 11,0 52 28 WSW 8
05.12.2019 19:00:00 12,0 12,0 44 24 WSW 7
05.12.2019 18:00:00 12,0 11,0 46 25 WSW 10
05.12.2019 17:00:00 11,0 10,0 41 22 SW 10
05.12.2019 16:00:00 10,0 9,0 48 26 SW 7
05.12.2019 15:00:00 9,0 8,0 41 22 SW 10
05.12.2019 14:00:00 9,0 7,0 39 21 SW 9
05.12.2019 13:00:00 8,0 7,0 34 18 SW 9
05.12.2019 12:00:00 8,0 6,0 29 16 SW 7
05.12.2019 11:00:00 8,0 5,0 37 20 SSW 10
05.12.2019 10:00:00 8,0 5,0 28 15 SW 10
05.12.2019 09:00:00 7,0 5,0 28 15 SW 10
05.12.2019 08:00:00 7,0 5,0 28 15 SW 10
05.12.2019 07:00:00 7,0 5,0 31 17 SW 10
05.12.2019 06:00:00 7,0 4,0 31 17 SW 10
05.12.2019 05:00:00 7,0 4,0 34 18 SW 10
05.12.2019 04:00:00 7,0 4,0 29 16 WSW 10
05.12.2019 03:00:00 6,0 4,0 29 16 SW 10
05.12.2019 02:00:00 6,0 4,0 29 16 SW 10
05.12.2019 01:00:00 6,0 4,0 29 16 WSW 10
05.12.2019 00:00:00 7,0 4,0 31 17 SW 10
04.12.2019 23:00:00 7,0 4,0 31 17 SW 10
04.12.2019 22:00:00 6,0 4,0 22 12 SW 10
04.12.2019 21:00:00 7,0 4,0 21 11 SW 10
04.12.2019 20:00:00 7,0 5,0 16 9 SW 10
04.12.2019 19:00:00 7,0 4,0 21 11 SW 10
04.12.2019 18:00:00 7,0 4,0 22 12 SW 10
04.12.2019 17:00:00 7,0 5,0 21 11 WSW 10
04.12.2019 16:00:00 8,0 6,0 26 14 SW 10
04.12.2019 15:00:00 8,0 8,0 18 10 SW 10
04.12.2019 14:00:00 9,0 8,0 24 13 WSW 7
04.12.2019 13:00:00 9,0 7,0 28 15 SW 10
04.12.2019 12:00:00 9,0 7,0 26 14 SW 9
04.12.2019 11:00:00 9,0 6,0 29 16 SSW 10
04.12.2019 10:00:00 9,0 5,0 26 14 SW 10
04.12.2019 09:00:00 8,0 4,0 26 14 SW 10
04.12.2019 08:00:00 8,0 4,0 24 13 SW 10
04.12.2019 07:00:00 7,0 5,0 22 12 SW 10
04.12.2019 06:00:00 8,0 5,0 16 9 SSW 10
04.12.2019 05:00:00 8,0 5,0 22 12 SSW 10
04.12.2019 04:00:00 7,0 5,0 18 10 SW 10
04.12.2019 03:00:00 - - - - - -
04.12.2019 02:00:00 8,0 6,0 18 10 WSW 10
04.12.2019 01:00:00 8,0 6,0 8 4 W 10
04.12.2019 00:00:00 8,0 5,0 9 5 WNW 10
03.12.2019 23:00:00 6,0 4,0 21 11 SW 10
03.12.2019 22:00:00 6,0 4,0 11 6 W 10
03.12.2019 21:00:00 4,0 3,0 13 7 WSW 10
03.12.2019 20:00:00 4,0 2,0 11 6 WSW 10
03.12.2019 19:00:00 3,0 2,0 4 2 - 10
03.12.2019 18:00:00 3,0 2,0 5 3 WSW 10
03.12.2019 17:00:00 4,0 3,0 5 3 - 10
03.12.2019 16:00:00 5,0 3,0 9 5 W 10
03.12.2019 15:00:00 6,0 3,0 15 8 WSW 10
03.12.2019 14:00:00 6,0 3,0 26 14 W 10
03.12.2019 13:00:00 6,0 4,0 28 15 WSW 10
03.12.2019 12:00:00 6,0 4,0 26 14 WSW 10
03.12.2019 11:00:00 6,0 4,0 22 12 WSW 10
03.12.2019 10:00:00 6,0 4,0 24 13 WSW 10
03.12.2019 09:00:00 7,0 4,0 26 14 WSW 10
03.12.2019 08:00:00 7,0 4,0 22 12 WSW 10
03.12.2019 07:00:00 7,0 5,0 22 12 WSW 10
03.12.2019 06:00:00 7,0 5,0 26 14 WSW 10
03.12.2019 05:00:00 7,0 6,0 24 13 WSW 10
03.12.2019 04:00:00 8,0 6,0 21 11 WSW 10
03.12.2019 03:00:00 8,0 6,0 22 12 WSW 10
03.12.2019 02:00:00 8,0 6,0 22 12 WSW 10
03.12.2019 01:00:00 8,0 7,0 22 12 WSW 10
03.12.2019 00:00:00 8,0 7,0 24 13 SW 10
02.12.2019 23:00:00 8,0 7,0 24 13 WSW 10

tt = Température de l'air
td = dewpoint
ff = Vitesse du vent
dd = Direction du vent
vv = visibility

stations d'obs. à proximité